Time;durP1;ratioP1;P1;durP2;ratioP2;P2;SDS_P1;SDS_P2;PMS_P1;PMS_P2;Temp;Humidity;BMP_temperature;BMP_pressure;BME280_temperature;BME280_humidity;BME280_pressure;Samples;Min_cycle;Max_cycle;Signal;HPM_P1;HPM_P2
2022/08/31 04:15:45;;;;;;;17.17;8.35;;;;;;;18.12;100.00;100402.59;5794974;23;20070;-62
2022/08/31 04:18:41;;;;;;;18.15;7.45;;;;;;;18.13;100.00;100403.47;4902761;29;20056;-62
2022/08/31 04:21:11;;;;;;;14.80;7.97;;;;;;;18.10;100.00;100403.88;4937914;29;20039;-60
2022/08/31 04:23:39;;;;;;;18.90;7.70;;;;;;;18.13;100.00;100411.53;4953672;29;20090;-60
2022/08/31 04:26:22;;;;;;;13.65;7.13;;;;;;;18.10;100.00;100417.34;4953652;29;20551;-60
2022/08/31 04:28:48;;;;;;;18.95;7.82;;;;;;;18.14;100.00;100416.72;4954875;29;20046;-62
2022/08/31 04:31:15;;;;;;;14.93;7.65;;;;;;;18.15;100.00;100414.84;4953726;28;20114;-62
2022/08/31 04:33:42;;;;;;;13.87;6.77;;;;;;;18.16;100.00;100420.00;4953680;29;20039;-62
2022/08/31 04:36:10;;;;;;;13.05;7.05;;;;;;;18.14;100.00;100421.28;4953512;29;20027;-61
2022/08/31 04:38:35;;;;;;;15.23;7.55;;;;;;;18.16;100.00;100425.41;4953604;29;20042;-62
2022/08/31 04:41:05;;;;;;;14.82;8.00;;;;;;;18.18;100.00;100427.88;4953308;29;20042;-62
2022/08/31 04:43:30;;;;;;;;;;;;;;;18.20;100.00;100433.06;4953890;29;20039;-60
2022/08/31 04:45:56;;;;;;;15.68;7.15;;;;;;;18.10;100.00;100439.75;4953298;29;20450;-63
2022/08/31 04:48:21;;;;;;;17.92;8.20;;;;;;;18.14;100.00;100445.53;4953396;29;20051;-62
2022/08/31 04:50:49;;;;;;;15.77;7.25;;;;;;;18.12;100.00;100445.75;4954209;29;20043;-61
2022/08/31 04:53:15;;;;;;;16.25;7.45;;;;;;;18.15;100.00;100452.59;4937551;29;20047;-63
2022/08/31 04:55:42;;;;;;;16.50;7.55;;;;;;;18.18;100.00;100444.88;4953095;29;20047;-64
2022/08/31 04:58:12;;;;;;;15.23;6.68;;;;;;;18.20;100.00;100439.28;4953197;29;20035;-63
2022/08/31 05:00:41;;;;;;;15.57;7.28;;;;;;;18.20;100.00;100449.25;4954218;29;20043;-64
2022/08/31 05:03:27;;;;;;;17.73;7.70;;;;;;;18.21;100.00;100450.88;4953957;29;20118;-64
2022/08/31 05:05:54;;;;;;;18.80;7.30;;;;;;;18.18;100.00;100458.34;4952873;29;20134;-64
2022/08/31 05:08:19;;;;;;;14.18;6.90;;;;;;;18.23;100.00;100459.56;4952995;29;20126;-64
2022/08/31 05:10:45;;;;;;;17.08;7.00;;;;;;;18.21;100.00;100461.66;4952620;29;20047;-64
2022/08/31 05:13:11;;;;;;;16.75;7.63;;;;;;;18.20;100.00;100460.03;4954414;29;20429;-63
2022/08/31 05:15:42;;;;;;;14.27;7.03;;;;;;;18.20;100.00;100473.50;4953085;29;20043;-64
2022/08/31 05:18:08;;;;;;;14.65;7.10;;;;;;;18.26;100.00;100464.53;4937421;29;20493;-64
2022/08/31 05:20:38;;;;;;;14.40;7.07;;;;;;;18.29;100.00;100462.22;4952367;29;20059;-63
2022/08/31 05:23:05;;;;;;;14.95;6.53;;;;;;;18.29;100.00;100469.50;4953961;29;20039;-64
2022/08/31 05:25:31;;;;;;;15.40;7.00;;;;;;;18.26;100.00;100451.88;4952601;29;20058;-62
2022/08/31 05:27:57;;;;;;;15.88;7.15;;;;;;;18.19;100.00;100448.38;4953866;29;20181;-62
2022/08/31 05:30:22;;;;;;;15.15;7.25;;;;;;;18.19;100.00;100445.69;4952187;29;20071;-64
2022/08/31 05:33:03;;;;;;;13.55;6.97;;;;;;;18.25;100.00;100457.47;4952624;29;20085;-64
2022/08/31 05:35:30;;;;;;;15.90;7.53;;;;;;;18.21;100.00;100456.28;4952405;29;20038;-63
2022/08/31 05:37:55;;;;;;;15.10;7.25;;;;;;;18.25;100.00;100468.25;4953706;29;20116;-64
2022/08/31 05:40:21;;;;;;;18.90;7.03;;;;;;;18.28;100.00;100467.84;4952094;29;20051;-64
2022/08/31 05:42:46;;;;;;;14.40;6.80;;;;;;;18.28;100.00;100474.06;4951824;28;20075;-64
2022/08/31 05:45:12;;;;;;;13.75;6.97;;;;;;;18.28;100.00;100473.22;4952333;29;20102;-64
2022/08/31 05:47:39;;;;;;;17.65;7.35;;;;;;;18.26;100.00;100478.03;4952411;29;20027;-64
2022/08/31 05:50:05;;;;;;;16.98;8.07;;;;;;;18.23;100.00;100473.88;4953338;29;20047;-64
2022/08/31 05:52:30;;;;;;;15.27;7.38;;;;;;;18.25;100.00;100471.78;4952296;29;20042;-64
2022/08/31 05:54:56;;;;;;;19.02;8.50;;;;;;;18.25;100.00;100481.75;4952195;29;20031;-64
2022/08/31 05:57:21;;;;;;;19.75;7.90;;;;;;;18.26;100.00;100488.81;4959223;28;20089;-64
2022/08/31 05:59:46;;;;;;;16.15;7.78;;;;;;;18.27;100.00;100491.28;4971136;28;20046;-64
2022/08/31 06:02:12;;;;;;;17.95;8.40;;;;;;;18.27;100.00;100496.69;4971443;28;20503;-64
2022/08/31 06:04:38;;;;;;;15.93;7.90;;;;;;;18.27;100.00;100490.47;4972803;28;20042;-65
2022/08/31 06:07:04;;;;;;;19.58;7.78;;;;;;;18.29;100.00;100489.19;4971218;28;20066;-65
2022/08/31 06:09:46;;;;;;;17.83;8.38;;;;;;;18.35;100.00;100487.50;4957351;28;20049;-64
2022/08/31 06:12:16;;;;;;;17.98;8.27;;;;;;;18.36;100.00;100491.84;4971455;28;20570;-65
2022/08/31 06:14:42;;;;;;;19.17;7.88;;;;;;;18.36;100.00;100489.97;4972747;28;20417;-65
2022/08/31 06:17:08;;;;;;;15.23;7.78;;;;;;;18.41;100.00;100489.31;4971181;28;20062;-65
2022/08/31 06:19:34;;;;;;;14.88;7.72;;;;;;;18.46;100.00;100489.50;4971144;28;20035;-65
2022/08/31 06:22:00;;;;;;;14.18;7.13;;;;;;;18.47;100.00;100493.84;4971371;28;20043;-65
2022/08/31 06:24:27;;;;;;;15.23;8.35;;;;;;;18.47;100.00;100490.31;4972544;28;20035;-64
2022/08/31 06:26:56;;;;;;;20.10;7.90;;;;;;;18.50;100.00;100495.25;4971151;28;20067;-65
2022/08/31 06:29:26;;;;;;;17.95;8.40;;;;;;;18.51;100.00;100496.91;4971047;28;20097;-65
2022/08/31 06:31:54;;;;;;;16.92;8.30;;;;;;;18.53;100.00;100502.94;4971292;28;20038;-65
2022/08/31 06:34:20;;;;;;;18.70;8.52;;;;;;;18.52;100.00;100494.00;4971244;28;20062;-65
2022/08/31 06:37:04;;;;;;;16.05;7.65;;;;;;;18.53;100.00;100494.84;4972459;28;20078;-65
2022/08/31 06:39:36;;;;;;;21.98;9.20;;;;;;;18.54;100.00;100494.63;4970884;28;20564;-64
2022/08/31 06:42:24;;;;;;;17.20;7.90;;;;;;;18.56;100.00;100497.09;4966910;28;20051;-65
2022/08/31 06:45:05;;;;;;;;;;;;;;;18.54;100.00;100486.53;4973001;28;20051;-65
2022/08/31 06:47:37;;;;;;;16.20;7.63;;;;;;;18.51;100.00;100489.63;4970968;28;19918;-65
2022/08/31 06:50:04;;;;;;;17.55;7.93;;;;;;;18.55;100.00;100485.47;4970643;28;20043;-65
2022/08/31 06:52:30;;;;;;;16.50;8.70;;;;;;;18.56;100.00;100487.13;4970974;28;20039;-64
2022/08/31 06:55:24;;;;;;;16.20;7.72;;;;;;;18.60;100.00;100487.53;4965017;28;20122;-66
2022/08/31 06:57:50;;;;;;;16.35;7.25;;;;;;;18.60;100.00;100490.22;4975915;28;20089;-58
2022/08/31 07:00:34;;;;;;;18.02;7.82;;;;;;;18.64;100.00;100496.81;4964644;28;20047;-58
2022/08/31 07:03:31;;;;;;;16.10;7.65;;;;;;;18.62;100.00;100496.22;4956480;29;20043;-50
2022/08/31 07:06:02;;;;;;;22.88;8.27;;;;;;;18.61;100.00;100497.25;4971302;28;20353;-51
2022/08/31 07:08:27;;;;;;;19.75;8.02;;;;;;;18.65;100.00;100496.59;4971263;28;20441;-48
2022/08/31 07:10:53;;;;;;;16.50;8.45;;;;;;;18.61;100.00;100495.38;4954682;29;20113;-53
2022/08/31 07:13:19;;;;;;;17.88;8.23;;;;;;;18.65;100.00;100503.88;4955049;29;20155;-54
2022/08/31 07:15:44;;;;;;;18.02;7.70;;;;;;;18.66;100.00;100505.53;4954766;29;20489;-58
2022/08/31 07:18:10;;;;;;;14.15;7.10;;;;;;;18.67;100.00;100499.94;4954930;29;20039;-55
2022/08/31 07:20:35;;;;;;;14.30;7.43;;;;;;;18.75;100.00;100506.09;4954478;29;20035;-55
2022/08/31 07:23:01;;;;;;;18.02;7.43;;;;;;;18.79;100.00;100504.63;4954816;29;20050;-58
2022/08/31 07:25:31;;;;;;;16.65;7.82;;;;;;;18.78;100.00;100506.50;4970771;28;20054;-57
2022/08/31 07:27:58;;;;;;;15.75;7.82;;;;;;;18.79;100.00;100507.31;4954693;29;20515;-59
2022/08/31 07:30:25;;;;;;;16.17;6.85;;;;;;;18.81;100.00;100505.22;4954542;29;20039;-57
2022/08/31 07:32:50;;;;;;;17.45;7.72;;;;;;;18.81;100.00;100513.31;4954644;29;20122;-56
2022/08/31 07:35:17;;;;;;;17.55;7.45;;;;;;;18.76;100.00;100510.44;4954497;29;20067;-57
2022/08/31 07:43:35;;;;;;;18.70;8.60;;;;;;;18.90;100.00;100517.38;4970588;28;20035;-56
2022/08/31 07:46:01;;;;;;;14.60;8.18;;;;;;;18.94;100.00;100522.13;4954344;29;20039;-51
2022/08/31 07:48:27;;;;;;;14.32;7.07;;;;;;;18.97;100.00;100524.38;4954477;29;20047;-51
2022/08/31 07:51:05;;;;;;;17.02;7.90;;;;;;;18.98;100.00;100519.81;4954026;29;20039;-51
2022/08/31 07:53:41;;;;;;;17.50;8.48;;;;;;;18.97;100.00;100519.00;4955624;29;20086;-50
2022/08/31 07:56:30;;;;;;;18.13;7.80;;;;;;;19.00;100.00;100523.09;4954159;29;20505;-49
2022/08/31 07:59:09;;;;;;;19.98;8.45;;;;;;;19.00;100.00;100520.41;4955469;29;20117;-51
2022/08/31 08:01:36;;;;;;;20.80;9.25;;;;;;;19.04;100.00;100523.47;4970243;28;20043;-53
2022/08/31 08:04:05;;;;;;;17.20;8.03;;;;;;;19.03;100.00;100522.66;4970167;28;20459;-53
2022/08/31 08:06:48;;;;;;;18.43;9.00;;;;;;;19.10;100.00;100528.81;4955050;28;20858;-51
2022/08/31 08:09:28;;;;;;;14.80;8.65;;;;;;;19.15;100.00;100530.84;4953734;29;20461;-50
2022/08/31 08:12:05;;;;;;;18.20;9.02;;;;;;;19.17;100.00;100535.00;4969225;28;20036;-52
2022/08/31 08:14:50;;;;;;;21.02;8.80;;;;;;;19.24;100.00;100535.75;4955081;29;20082;-52
2022/08/31 08:17:42;;;;;;;18.98;8.77;;;;;;;19.22;100.00;100537.00;4969973;28;20073;-53
2022/08/31 08:20:11;;;;;;;19.23;8.77;;;;;;;19.33;100.00;100544.38;4953464;29;20456;-50
2022/08/31 08:22:38;;;;;;;21.75;8.95;;;;;;;19.37;100.00;100553.72;4954977;29;20031;-52
2022/08/31 08:25:21;;;;;;;19.25;8.90;;;;;;;19.28;100.00;100552.31;4954790;29;20109;-52
2022/08/31 08:28:06;;;;;;;21.80;8.43;;;;;;;19.44;100.00;100550.94;4954949;29;20047;-55
2022/08/31 08:30:35;;;;;;;16.10;8.68;;;;;;;19.50;100.00;100550.03;4969421;28;20043;-54
2022/08/31 08:33:02;;;;;;;18.75;8.88;;;;;;;19.51;100.00;100557.91;4953548;29;20086;-49
2022/08/31 08:35:31;;;;;;;23.33;10.10;;;;;;;19.55;100.00;100558.28;4953398;29;20051;-51
2022/08/31 08:37:57;;;;;;;21.23;10.77;;;;;;;19.62;100.00;100558.22;4953356;29;20035;-57
2022/08/31 08:40:44;;;;;;;19.08;9.30;;;;;;;19.70;100.00;100566.88;4953163;29;20039;-52
2022/08/31 08:43:15;;;;;;;19.33;8.45;;;;;;;19.76;100.00;100571.38;4953546;29;20066;-56
2022/08/31 08:45:45;;;;;;;16.27;8.43;;;;;;;19.85;100.00;100571.06;4954623;29;20039;-52
2022/08/31 08:48:16;;;;;;;19.00;9.55;;;;;;;19.96;100.00;100565.75;4953455;29;20036;-48
2022/08/31 08:50:42;;;;;;;18.88;9.68;;;;;;;20.02;100.00;100574.81;4953075;29;20571;-53
2022/08/31 08:53:12;;;;;;;18.20;8.70;;;;;;;20.07;100.00;100574.94;4953293;29;20459;-49
2022/08/31 08:55:47;;;;;;;17.75;9.07;;;;;;;19.93;100.00;100578.88;4953121;29;20059;-50
2022/08/31 08:58:12;;;;;;;18.27;8.57;;;;;;;20.00;100.00;100583.16;4952892;29;20077;-49
2022/08/31 09:00:45;;;;;;;20.35;10.05;;;;;;;19.90;100.00;100582.03;4952530;29;20122;-51
2022/08/31 09:03:29;;;;;;;20.05;9.48;;;;;;;19.95;100.00;100582.16;4953002;29;20057;-50
2022/08/31 09:06:30;;;;;;;22.40;9.27;;;;;;;20.02;100.00;100591.06;4953936;29;20107;-55
2022/08/31 09:09:08;;;;;;;20.80;8.68;;;;;;;20.09;100.00;100593.66;4952704;29;20039;-52
2022/08/31 09:11:59;;;;;;;19.08;9.05;;;;;;;20.09;100.00;100597.19;4969175;28;20042;-52
2022/08/31 09:15:06;;;;;;;19.13;8.73;;;;;;;20.09;100.00;100583.69;4954293;29;20035;-51
2022/08/31 09:18:05;;;;;;;22.35;9.70;;;;;;;19.94;100.00;100600.28;4930466;29;20040;-51
2022/08/31 09:20:32;;;;;;;19.02;9.38;;;;;;;19.90;100.00;100603.66;4952268;29;20046;-50
2022/08/31 09:22:59;;;;;;;19.42;9.40;;;;;;;19.86;100.00;100603.28;4952704;29;20086;-51
2022/08/31 09:25:33;;;;;;;15.05;8.82;;;;;;;19.87;100.00;100599.53;4952543;29;20583;-54
2022/08/31 09:28:03;;;;;;;14.55;7.40;;;;;;;19.78;100.00;100601.72;4953859;28;20042;-51
2022/08/31 09:30:43;;;;;;;18.67;9.25;;;;;;;19.83;100.00;100603.75;4953595;29;20039;-55
2022/08/31 09:33:24;;;;;;;20.20;10.07;;;;;;;19.81;100.00;100610.41;4953833;29;20170;-58
2022/08/31 09:35:55;;;;;;;24.17;10.20;;;;;;;19.73;100.00;100611.53;4953787;29;20116;-59
2022/08/31 09:38:39;;;;;;;18.92;9.68;;;;;;;19.70;100.00;100612.00;4953735;29;20453;-59
2022/08/31 09:41:27;;;;;;;18.08;9.60;;;;;;;19.61;100.00;100614.16;4953500;29;20048;-56
2022/08/31 09:43:54;;;;;;;19.13;9.90;;;;;;;19.55;100.00;100620.41;4950248;29;20067;-59
2022/08/31 09:46:28;;;;;;;21.05;10.07;;;;;;;19.46;100.00;100617.19;4953577;29;20057;-52
2022/08/31 09:49:01;;;;;;;19.10;10.10;;;;;;;19.45;100.00;100625.53;4953414;29;20653;-55
2022/08/31 09:51:35;;;;;;;15.82;8.93;;;;;;;19.38;100.00;100619.34;4953739;29;20118;-57
2022/08/31 09:57:05;;;;;;;14.23;7.18;;;;;;;19.17;100.00;100621.41;4953406;29;20090;-57
2022/08/31 09:59:40;;;;;;;18.02;8.25;;;;;;;19.02;100.00;100610.09;4953157;29;20043;-55
2022/08/31 10:02:36;;;;;;;16.35;8.18;;;;;;;18.98;100.00;100608.88;4953555;29;20050;-58
2022/08/31 10:05:39;;;;;;;12.85;7.75;;;;;;;18.84;100.00;100615.41;4952992;28;20130;-58
2022/08/31 10:08:38;;;;;;;18.00;8.43;;;;;;;18.87;100.00;100620.38;4951503;29;20051;-55
2022/08/31 10:11:17;;;;;;;15.13;8.15;;;;;;;18.82;100.00;100614.81;4953259;29;20457;-57
2022/08/31 10:14:00;;;;;;;14.60;8.07;;;;;;;18.87;100.00;100618.50;4953321;29;20096;-53
2022/08/31 10:16:30;;;;;;;15.07;7.47;;;;;;;18.81;100.00;100621.25;4953475;29;20430;-58
2022/08/31 10:19:04;;;;;;;17.63;9.38;;;;;;;18.74;100.00;100612.38;4953315;29;20492;-52
2022/08/31 10:21:38;;;;;;;20.63;8.30;;;;;;;18.66;100.00;100622.41;4953341;29;20066;-65
2022/08/31 10:24:27;;;;;;;18.88;8.77;;;;;;;18.79;100.00;100617.97;4953292;29;20497;-65
2022/08/31 10:27:06;;;;;;;12.80;7.65;;;;;;;18.86;100.00;100618.75;4953159;28;20027;-65
2022/08/31 10:29:44;;;;;;;17.48;7.80;;;;;;;18.86;100.00;100618.75;4975301;23;20039;-66
2022/08/31 10:32:52;;;;;;;14.68;8.23;;;;;;;18.92;100.00;100621.38;4938053;29;20067;-69
2022/08/31 10:35:22;;;;;;;17.83;7.63;;;;;;;18.87;100.00;100620.38;4879076;29;20055;-68
2022/08/31 10:37:59;;;;;;;19.75;8.63;;;;;;;18.92;100.00;100616.00;4878899;29;20029;-68
2022/08/31 10:40:34;;;;;;;16.35;7.00;;;;;;;18.95;100.00;100620.94;4905760;29;20091;-68
2022/08/31 10:43:08;;;;;;;13.20;7.10;;;;;;;18.94;100.00;100619.28;4937928;29;20075;-68
2022/08/31 10:45:41;;;;;;;14.55;8.38;;;;;;;19.07;100.00;100617.53;4937895;29;20500;-68
2022/08/31 10:48:09;;;;;;;16.58;8.00;;;;;;;19.08;100.00;100613.78;4937800;29;20207;-68
2022/08/31 10:51:21;;;;;;;15.05;7.30;;;;;;;19.15;100.00;100618.06;4937086;29;20103;-68
2022/08/31 10:54:05;;;;;;;15.77;8.75;;;;;;;19.21;100.00;100617.19;4878872;29;20052;-68
2022/08/31 10:56:36;;;;;;;13.45;7.78;;;;;;;19.28;100.00;100617.13;4937044;29;20110;-68
2022/08/31 10:59:16;;;;;;;16.17;7.53;;;;;;;19.23;100.00;100616.97;4937640;29;20051;-66
2022/08/31 11:02:03;;;;;;;13.82;7.10;;;;;;;19.20;100.00;100626.34;4936282;29;20035;-66
2022/08/31 11:04:47;;;;;;;15.18;7.72;;;;;;;19.05;100.00;100606.13;4937489;29;20086;-66
2022/08/31 11:07:40;;;;;;;14.90;7.53;;;;;;;19.07;100.00;100612.97;4937337;29;20473;-65
2022/08/31 11:10:46;;;;;;;12.77;6.60;;;;;;;19.13;100.00;100609.38;4937014;29;20038;-67
2022/08/31 11:13:37;;;;;;;18.63;8.13;;;;;;;19.06;100.00;100613.19;4915184;29;20051;-66
2022/08/31 11:16:21;;;;;;;16.13;8.20;;;;;;;19.10;100.00;100609.81;4937300;29;20061;-65
2022/08/31 11:18:50;;;;;;;12.68;7.97;;;;;;;19.07;100.00;100614.84;4936923;29;20118;-64
2022/08/31 11:21:49;;;;;;;14.00;7.55;;;;;;;19.00;100.00;100614.88;4936726;29;20481;-66
2022/08/31 11:24:33;;;;;;;18.10;9.15;;;;;;;19.07;100.00;100612.13;4937075;29;20031;-66
2022/08/31 11:27:22;;;;;;;15.07;7.90;;;;;;;18.96;100.00;100608.25;4944141;29;20044;-65
2022/08/31 11:29:55;;;;;;;11.00;7.53;;;;;;;19.01;100.00;100611.13;4945680;29;20055;-65
2022/08/31 11:32:44;;;;;;;14.23;8.07;;;;;;;19.00;100.00;100609.50;4944440;29;20114;-65
2022/08/31 11:35:11;;;;;;;16.52;8.40;;;;;;;18.95;100.00;100609.31;4946442;29;20531;-65
2022/08/31 11:37:51;;;;;;;15.60;7.40;;;;;;;19.12;100.00;100606.91;4945314;29;20424;-66
2022/08/31 11:40:40;;;;;;;13.90;7.20;;;;;;;19.10;100.00;100601.72;4943424;28;20036;-65
2022/08/31 11:43:07;;;;;;;14.18;7.50;;;;;;;19.19;100.00;100608.50;4942672;29;20054;-63
2022/08/31 11:45:36;;;;;;;14.82;8.43;;;;;;;19.22;100.00;100607.22;4936762;29;20028;-65
2022/08/31 11:48:12;;;;;;;14.20;8.07;;;;;;;19.31;100.00;100605.09;4935381;29;20457;-64
2022/08/31 11:51:01;;;;;;;14.27;8.05;;;;;;;19.30;100.00;100600.72;4936287;29;20051;-64
2022/08/31 11:53:33;;;;;;;15.43;7.60;;;;;;;19.34;100.00;100601.94;4936581;29;20036;-65
2022/08/31 11:56:05;;;;;;;13.77;7.10;;;;;;;19.36;100.00;100599.81;4936540;29;20044;-65
2022/08/31 11:58:38;;;;;;;12.70;7.35;;;;;;;19.40;100.00;100601.03;4936458;29;20498;-65
2022/08/31 12:01:09;;;;;;;14.65;7.72;;;;;;;19.38;100.00;100601.28;4936114;29;20058;-66
2022/08/31 12:03:45;;;;;;;18.65;8.75;;;;;;;19.36;100.00;100580.91;4936401;29;20039;-65
2022/08/31 12:06:26;;;;;;;14.35;7.47;;;;;;;19.45;100.00;100585.81;4936397;29;20048;-65
2022/08/31 12:09:13;;;;;;;12.88;8.30;;;;;;;19.44;100.00;100584.19;4936222;29;20500;-64
2022/08/31 12:11:50;;;;;;;16.17;8.82;;;;;;;19.49;100.00;100588.88;4936161;29;20039;-64
2022/08/31 12:14:37;;;;;;;15.85;9.70;;;;;;;19.49;100.00;100588.88;4936333;29;20036;-65
2022/08/31 12:17:33;;;;;;;14.68;8.60;;;;;;;19.53;100.00;100593.63;4936164;29;20051;-68
2022/08/31 12:20:11;;;;;;;15.03;8.20;;;;;;;19.45;100.00;100587.69;4935789;29;20128;-68
2022/08/31 12:25:39;;;;;;;18.08;8.30;;;;;;;19.63;100.00;100579.66;4936024;29;20035;-67
2022/08/31 12:28:26;;;;;;;13.60;7.55;;;;;;;19.60;100.00;100582.78;4935887;29;20484;-67
2022/08/31 12:30:55;;;;;;;15.93;8.73;;;;;;;19.71;100.00;100571.25;4935533;29;20386;-67
2022/08/31 12:33:25;;;;;;;15.93;8.07;;;;;;;19.85;100.00;100571.91;4935771;29;20696;-67
2022/08/31 12:35:53;;;;;;;14.93;8.98;;;;;;;19.92;100.00;100569.94;4935916;29;20677;-68
2022/08/31 12:38:25;;;;;;;13.48;7.45;;;;;;;20.05;100.00;100563.53;4935627;29;20028;-67
2022/08/31 12:40:55;;;;;;;17.05;7.97;;;;;;;20.19;100.00;100565.00;4935291;29;20066;-68
2022/08/31 12:43:30;;;;;;;13.60;7.75;;;;;;;20.27;100.00;100567.41;4935658;29;20036;-67
2022/08/31 12:46:02;;;;;;;17.30;8.93;;;;;;;20.09;100.00;100570.16;4935691;29;20504;-67
2022/08/31 12:48:49;;;;;;;14.73;8.13;;;;;;;20.24;100.00;100558.94;4935468;29;20119;-67
2022/08/31 12:51:35;;;;;;;;;;;;;;;20.32;100.00;100562.13;4936065;29;20466;-67
2022/08/31 12:54:22;;;;;;;16.92;8.68;;;;;;;20.30;100.00;100564.25;4936870;29;19918;-67
2022/08/31 12:57:12;;;;;;;13.65;8.70;;;;;;;20.28;100.00;100563.66;4942478;29;20031;-67
2022/08/31 12:59:49;;;;;;;16.10;8.45;;;;;;;20.55;100.00;100561.44;4945285;29;20085;-67
2022/08/31 13:02:15;;;;;;;13.70;8.30;;;;;;;20.67;99.09;100564.16;4931058;29;20038;-68
2022/08/31 13:04:45;;;;;;;12.75;8.05;;;;;;;20.64;97.99;100556.50;4943502;29;20408;-67
2022/08/31 13:07:19;;;;;;;14.68;8.50;;;;;;;20.54;98.43;100557.06;4940547;29;20043;-66
2022/08/31 13:09:44;;;;;;;16.75;9.02;;;;;;;20.48;99.56;100554.47;4945057;28;20046;-67
2022/08/31 13:12:21;;;;;;;14.15;8.52;;;;;;;20.23;100.00;100547.28;4928812;29;20118;-67
2022/08/31 13:14:46;;;;;;;14.37;8.37;;;;;;;20.35;100.00;100549.22;4926039;29;20088;-68
2022/08/31 13:17:18;;;;;;;12.77;8.00;;;;;;;20.40;100.00;100550.16;4922864;29;20288;-67
2022/08/31 13:19:52;;;;;;;16.20;8.90;;;;;;;20.42;99.58;100549.94;4924728;29;20482;-67
2022/08/31 13:22:40;;;;;;;14.82;8.18;;;;;;;20.37;99.23;100539.81;4924717;29;20486;-67
2022/08/31 13:25:15;;;;;;;18.42;8.77;;;;;;;20.41;99.51;100545.56;4925626;29;20040;-68
2022/08/31 13:27:49;;;;;;;14.68;7.82;;;;;;;20.32;98.31;100537.78;4930163;29;20079;-67
2022/08/31 13:30:19;;;;;;;15.13;7.78;;;;;;;20.31;99.22;100536.13;4937517;28;20048;-67
2022/08/31 13:32:50;;;;;;;11.55;7.28;;;;;;;20.28;99.44;100530.38;4936103;29;21574;-67
2022/08/31 13:35:22;;;;;;;12.25;7.65;;;;;;;20.29;100.00;100532.84;4942486;29;20039;-67
2022/08/31 13:38:06;;;;;;;15.80;8.05;;;;;;;20.41;99.76;100534.75;4932026;29;20032;-67
2022/08/31 13:40:38;;;;;;;11.43;6.32;;;;;;;20.20;99.52;100534.22;4929184;29;20047;-66
2022/08/31 13:43:09;;;;;;;13.70;7.28;;;;;;;20.25;98.59;100528.13;4934948;29;20043;-67
2022/08/31 13:45:41;;;;;;;12.90;7.25;;;;;;;20.43;99.20;100532.66;4932875;29;20066;-67
2022/08/31 13:48:19;;;;;;;11.45;6.85;;;;;;;20.69;94.69;100531.44;4934641;28;20028;-67
2022/08/31 13:50:49;;;;;;;;;;;;;;;20.98;93.04;100529.69;4915702;29;20087;-67
2022/08/31 13:53:41;;;;;;;9.70;6.70;;;;;;;21.20;92.10;100522.66;4915684;29;19915;-68
2022/08/31 13:56:54;;;;;;;10.73;7.47;;;;;;;21.46;90.27;100525.97;4915544;29;20058;-67
2022/08/31 13:59:22;;;;;;;14.30;7.43;;;;;;;21.56;89.96;100527.00;4915161;29;20039;-67
2022/08/31 14:02:28;;;;;;;11.27;6.85;;;;;;;21.43;89.76;100516.41;4915442;29;20099;-67
2022/08/31 14:05:04;;;;;;;22.90;13.10;;;;;;;21.55;88.06;100524.53;4893814;29;20048;-68
2022/08/31 14:07:31;;;;;;;15.73;9.05;;;;;;;21.52;87.09;100516.88;4894233;29;20087;-67
2022/08/31 14:10:13;;;;;;;10.82;6.47;;;;;;;21.50;88.98;100516.28;4905596;29;20403;-67
2022/08/31 14:12:50;;;;;;;10.23;6.35;;;;;;;21.49;86.93;100520.06;4915312;29;20114;-67
2022/08/31 14:15:32;;;;;;;9.20;6.75;;;;;;;21.34;86.51;100507.81;4915416;29;20046;-67
2022/08/31 14:18:00;;;;;;;11.65;7.45;;;;;;;21.25;87.66;100501.06;4915443;29;20456;-67
2022/08/31 14:20:36;;;;;;;10.30;6.70;;;;;;;21.24;88.84;100509.44;4914946;29;20036;-67
2022/08/31 14:23:37;;;;;;;10.57;7.10;;;;;;;21.17;89.43;100506.88;4915345;29;20446;-66
2022/08/31 14:26:11;;;;;;;13.05;6.70;;;;;;;21.26;91.40;100508.16;4894065;29;20055;-68
2022/08/31 14:28:39;;;;;;;10.60;6.95;;;;;;;21.24;92.33;100506.75;4912230;29;20040;-68
2022/08/31 14:31:23;;;;;;;11.43;7.10;;;;;;;21.29;91.33;100502.28;4914866;29;20076;-67
2022/08/31 14:34:10;;;;;;;11.60;7.75;;;;;;;21.31;91.04;100511.00;4915262;29;20040;-67
2022/08/31 14:36:53;;;;;;;12.35;7.40;;;;;;;21.33;89.82;100506.19;4915263;29;20573;-66
2022/08/31 14:39:29;;;;;;;9.32;6.75;;;;;;;21.18;88.34;100507.69;4913512;29;20375;-67
2022/08/31 14:41:58;;;;;;;11.93;7.13;;;;;;;21.19;89.11;100503.91;4915182;29;20076;-67
2022/08/31 14:44:28;;;;;;;13.85;8.70;;;;;;;21.08;90.96;100501.00;4915126;29;20028;-66
2022/08/31 14:46:53;;;;;;;11.93;6.90;;;;;;;21.06;91.75;100500.41;4915310;29;20394;-55
2022/08/31 14:49:19;;;;;;;11.55;8.18;;;;;;;21.10;91.65;100493.44;4915378;29;20044;-51
2022/08/31 14:51:45;;;;;;;15.52;7.97;;;;;;;21.10;92.63;100495.31;4915068;29;20044;-65
2022/08/31 14:54:10;;;;;;;10.73;7.47;;;;;;;21.00;91.98;100487.00;4915575;29;20063;-51
2022/08/31 14:56:44;;;;;;;11.30;7.38;;;;;;;20.95;91.87;100490.41;4915163;29;20036;-67
2022/08/31 14:59:11;;;;;;;12.45;7.45;;;;;;;21.01;90.45;100484.03;4914788;29;20131;-69
2022/08/31 15:01:39;;;;;;;9.40;7.07;;;;;;;20.99;90.01;100483.44;4913713;29;20035;-69
2022/08/31 15:04:05;;;;;;;9.98;7.28;;;;;;;21.00;92.80;100485.09;4913889;29;20071;-68
2022/08/31 15:06:32;;;;;;;11.50;6.95;;;;;;;20.93;94.31;100483.53;4952006;29;20063;-69
2022/08/31 15:08:58;;;;;;;12.23;6.97;;;;;;;20.99;94.15;100478.00;4953173;28;20452;-69
2022/08/31 15:11:24;;;;;;;11.77;7.93;;;;;;;21.08;92.46;100483.91;4952880;28;20302;-69
2022/08/31 15:13:50;;;;;;;10.45;7.55;;;;;;;21.12;91.93;100491.31;4951864;29;20493;-69
2022/08/31 15:16:15;;;;;;;13.70;8.07;;;;;;;21.12;91.55;100479.66;4954470;28;20050;-69
2022/08/31 15:18:41;;;;;;;11.65;7.88;;;;;;;21.09;92.63;100483.69;4956466;28;20035;-69
2022/08/31 15:21:09;;;;;;;12.95;8.68;;;;;;;21.17;92.41;100473.53;4955948;29;20386;-69
2022/08/31 15:23:35;;;;;;;11.35;7.88;;;;;;;21.17;92.33;100468.13;4956394;28;20452;-67
2022/08/31 15:26:06;;;;;;;16.73;7.85;;;;;;;21.15;93.72;100465.66;4956365;28;20050;-69
2022/08/31 15:28:36;;;;;;;13.70;7.85;;;;;;;21.14;93.61;100469.44;4956191;28;20031;-70
2022/08/31 15:31:20;;;;;;;12.60;7.97;;;;;;;21.18;95.14;100464.34;4955846;28;20050;-69
2022/08/31 15:33:48;;;;;;;13.73;8.00;;;;;;;21.15;96.07;100462.94;4956166;28;20087;-69
2022/08/31 15:36:14;;;;;;;12.15;8.05;;;;;;;21.22;94.77;100466.34;4956292;28;20027;-68
2022/08/31 15:38:42;;;;;;;38.70;18.67;;;;;;;21.27;94.62;100462.94;4956160;28;20050;-69
2022/08/31 15:41:10;;;;;;;;;;;;;;;21.38;95.47;100459.38;4956192;29;20043;-69
2022/08/31 15:43:40;;;;;;;16.25;10.45;;;;;;;21.47;91.99;100463.41;4956075;28;19969;-69
2022/08/31 15:46:09;;;;;;;11.52;8.18;;;;;;;21.35;91.07;100454.47;4955944;28;20043;-68
2022/08/31 15:48:41;;;;;;;13.88;8.05;;;;;;;21.48;90.29;100456.09;4955907;28;20039;-68
2022/08/31 15:51:26;;;;;;;12.57;8.63;;;;;;;21.44;91.23;100455.72;4955592;28;20067;-68
2022/08/31 15:53:55;;;;;;;13.57;8.95;;;;;;;21.55;90.26;100456.78;4954601;29;20133;-68
2022/08/31 15:56:22;;;;;;;14.10;8.25;;;;;;;21.40;89.90;100451.88;4955887;28;20031;-68
2022/08/31 15:58:55;;;;;;;12.23;8.40;;;;;;;21.46;89.72;100445.50;4955575;28;20039;-68
2022/08/31 16:01:22;;;;;;;15.55;8.73;;;;;;;21.53;88.89;100446.19;4955611;28;20039;-68
2022/08/31 16:03:54;;;;;;;12.43;8.35;;;;;;;21.42;89.32;100436.19;4955592;28;20074;-68
2022/08/31 16:06:22;;;;;;;13.43;8.05;;;;;;;21.54;89.34;100441.56;4955645;28;20639;-68
2022/08/31 16:08:54;;;;;;;26.95;14.55;;;;;;;21.57;89.19;100439.19;4955561;28;20039;-68
2022/08/31 16:11:22;;;;;;;16.80;9.63;;;;;;;21.61;89.30;100431.41;4955442;28;20039;-68